createdAt,value
2018-02-25T10:40:59.451Z,35.23
2018-02-25T10:57:36.970Z,33.94
2018-02-25T11:00:07.175Z,31.72
2018-02-25T12:10:18.211Z,28.44
2018-02-25T12:12:49.139Z,29.46
2018-02-25T12:15:18.598Z,31.48
2018-02-25T12:17:47.939Z,29.67
2018-02-25T12:20:18.063Z,29.06
2018-02-25T12:22:47.567Z,29.93
2018-02-25T12:25:17.180Z,31.23
2018-02-25T12:27:46.536Z,31.06
2018-02-25T12:30:15.852Z,30.78
2018-02-25T12:32:45.184Z,32.33
2018-02-25T12:35:14.842Z,30.55
2018-02-25T12:37:44.971Z,30.50
2018-02-25T12:40:15.140Z,29.09
2018-02-25T12:42:44.517Z,30.93
2018-02-25T12:45:14.090Z,30.65
2018-02-25T12:47:43.543Z,28.75
2018-02-25T12:50:12.873Z,28.96
2018-02-25T12:52:42.329Z,29.91
2018-02-25T12:55:19.982Z,31.05
2018-02-25T12:57:52.546Z,31.50
2018-02-25T13:00:25.492Z,30.60
2018-02-25T13:02:57.904Z,31.56
2018-02-25T13:05:29.426Z,31.33
2018-02-25T13:07:58.783Z,31.22
2018-02-25T13:10:28.939Z,30.61
2018-02-25T13:12:58.324Z,29.32
2018-02-25T13:15:27.757Z,30.74
2018-02-25T13:17:57.179Z,32.22
2018-02-25T13:20:27.769Z,32.17
2018-02-25T13:22:57.225Z,31.46
2018-02-25T13:25:27.158Z,31.56
2018-02-25T13:27:57.276Z,30.37
2018-02-25T13:30:27.459Z,29.85
2018-02-25T13:32:57.256Z,31.67
2018-02-25T13:35:30.779Z,31.21
2018-02-25T13:38:00.181Z,31.68
2018-02-25T13:40:30.313Z,30.16
2018-02-25T13:42:59.644Z,31.00
2018-02-25T13:45:31.630Z,30.16
2018-02-25T13:48:13.571Z,30.54
2018-02-25T13:50:43.305Z,31.53
2018-02-25T13:53:13.572Z,31.60
2018-02-25T13:55:43.032Z,32.78
2018-02-25T13:58:12.504Z,32.79
2018-02-25T14:00:42.226Z,33.06
2018-02-25T14:03:14.248Z,32.13
2018-02-25T14:05:43.791Z,31.35
2018-02-25T14:08:23.710Z,33.25
2018-02-25T14:10:59.370Z,33.13
2018-02-25T14:19:10.052Z,32.54
2018-02-25T14:21:40.170Z,33.31
2018-02-25T14:24:09.557Z,32.89
2018-02-25T14:26:39.270Z,33.48
2018-02-25T14:29:08.609Z,32.98
2018-02-25T14:34:33.458Z,33.94
2018-02-25T14:37:07.867Z,32.70
2018-02-25T14:39:37.453Z,32.01
2018-02-25T14:42:15.489Z,32.53
2018-02-25T14:44:46.194Z,31.57
2018-02-25T14:47:15.532Z,32.02
2018-02-25T14:49:44.935Z,32.32
2018-02-25T15:02:49.076Z,38.01
2018-02-25T15:05:19.112Z,37.61
2018-02-25T15:07:50.539Z,37.18
2018-02-25T15:10:20.560Z,36.47
2018-02-25T15:12:52.421Z,37.08
2018-02-25T15:15:22.597Z,36.78
2018-02-25T15:31:50.073Z,36.41
2018-02-25T15:34:19.622Z,36.33
2018-02-25T15:36:49.416Z,37.40
2018-02-25T15:52:48.398Z,36.79
2018-02-25T15:55:32.609Z,36.58
2018-02-25T16:00:35.975Z,37.11
2018-02-25T16:03:05.833Z,36.99
2018-02-25T16:05:35.532Z,37.44
2018-02-25T16:08:05.301Z,37.81
2018-02-25T16:10:35.443Z,37.86
2018-02-25T16:13:04.832Z,37.65
2018-02-25T16:15:35.114Z,38.00
2018-02-25T16:18:04.448Z,38.03
2018-02-25T16:20:48.978Z,37.94
2018-02-25T16:23:18.370Z,38.02
2018-02-25T16:25:47.929Z,38.30
2018-02-25T16:28:17.633Z,38.84
2018-02-25T16:30:47.173Z,38.94
2018-02-25T16:33:16.619Z,38.18
2018-02-25T16:35:46.213Z,38.50
2018-02-25T16:38:15.927Z,39.05
2018-02-25T16:43:44.133Z,39.61
2018-02-25T16:46:38.315Z,39.48
2018-02-25T16:49:43.183Z,39.34
2018-02-25T16:57:22.536Z,40.06
2018-02-25T17:18:32.756Z,42.15
2018-02-25T17:21:05.454Z,42.02
2018-02-25T17:23:35.029Z,42.72
2018-02-25T18:07:30.997Z,45.21
2018-02-25T18:10:00.464Z,44.58
2018-02-25T18:12:41.912Z,44.20
2018-02-25T18:15:21.236Z,44.59
2018-02-25T18:20:54.324Z,44.85
2018-02-25T18:23:27.603Z,45.18
2018-02-25T18:25:58.168Z,45.21
2018-02-25T18:28:28.168Z,45.21
2018-02-25T18:30:58.014Z,45.66
2018-02-25T18:33:27.554Z,46.27
2018-02-25T18:35:57.478Z,46.19
2018-02-25T18:38:27.171Z,46.46
2018-02-25T18:40:56.553Z,46.38
2018-02-25T18:43:33.247Z,46.09
2018-02-25T18:46:17.721Z,45.92
2018-02-25T18:48:48.149Z,45.75
2018-02-25T18:51:17.679Z,46.51
